Mirabel, Québec

9:01 AM EDT on June 02, 2015 (GMT -0400)
Montreal International (Mirabel) | | Change Station
CLOSE
Current Station
Airport
Location: Montreal Mirabel,
Elevation: 269 ft
Nearby Weather Stations

Elev 269 ft 45.68 °N, 74.04 °W | Updated 1 hour ago

Light Drizzle
Light Drizzle Mist
46 °F
Feels Like 42 °F
N
9
Wind Variable Wind from ENE

Today
High -- | Low -- °F
--% Chance of Precip.
Yesterday
High -- | Low -- °F
Precip. -- in
5:09 AM 8:38 PM
Full, 100% visible
Pressure 30.23 in
Visibility 1.5 miles
Clouds Mostly Cloudy 500 ft
Overcast 1200 ft
Windchill 42 °F
Dew Point 46 °F
Humidity 100%
Rainfall 0.00 in
Snow Depth Not available.
UV 1 out of 12
Pollen Not available.
Air Quality Not available.
Flu Activity Not available.
METAR CYMX 021200Z 06008KT 360V090 1 1/2SM -DZ BR BKN005 OVC012 08/08 A3022 RMK FG4SF2SF2 SLP237

More Conditions Fewer Conditions

Pressure 30.23 in
Visibility 1.5 miles
Clouds Mostly Cloudy 500 ft
Overcast 1200 ft
Windchill 42 °F
Dew Point 46 °F
Humidity 100%
Rainfall 0.00 in
Snow Depth Not available.
UV 1 out of 12
Pollen Not available.
Air Quality Not available.
Flu Activity Not available.
METAR CYMX 021200Z 06008KT 360V090 1 1/2SM -DZ BR BKN005 OVC012 08/08 A3022 RMK FG4SF2SF2 SLP237

More Conditions Fewer Conditions

Nowcast |

Wednesday night clear. Low 9

×

10-Day Weather Forecast

Almanac

Astronomy

Jun. 02, 2015 Rise Set
Actual Time
Civil Twilight
Nautical Twilight
Astronomical Twilight
Moon
Length of Visible Light
Length of Day
Tomorrow will be .
, % of the Moon is Illuminated

Today's Extremes

Country Highs Country Lows

Community

WunderPhotos

Upload Photos

1,825,897 photos uploaded!

WunderBlogs® & News

Nearby

Air Quality

  Air Quality AQ Index Pollutant
Not available.

Snow Depth

Station Depth Elevation

Earthquake Activity

City Distance Mag. Time & Date
Minimum magnitude displayed is 2.5.

Coastal Water Temperatures

Place Temperature

Stations

Nearby Weather Stations

Station Location Temp. Windchill Dew Point Humidity Wind Precip. Elev Updated Type